TNV weather

Tabuaeran Island Airport
Tabuaeran Island, Line Islands, Kiribati

Public forecast

Using degrees Celsius for public forecast. Weather courtesy of forecast.io.

METAR (pilot weather report)

Report is more than 2 hours old.

Closest report is Cassidy International Airport, 167.8 nm (310.7 km) SE. Retrieved 2019/07/21 18:00 UTC (5 hours ago):

PLCH 211800Z 09008KT 9999 SCT020 29/22 Q1010

TAF (pilot weather forecast)

Closest forecast is Cassidy International Airport, 167.8 nm (310.7 km) SE. Retrieved 2019/07/21 18:00 UTC (5 hours ago):

TAF PLCH 211720Z 2118/2218 09008KT 9999 FEW020